createdAt,value
2023-05-21T00:00:10.749Z,99.90
2023-05-21T00:02:39.850Z,99.90
2023-05-21T00:05:13.771Z,99.90
2023-05-21T00:07:42.002Z,99.90
2023-05-21T00:10:09.800Z,99.90
2023-05-21T00:12:37.587Z,99.90
2023-05-21T00:15:05.428Z,99.90
2023-05-21T00:17:32.826Z,99.90
2023-05-21T00:20:02.913Z,99.90
2023-05-21T00:22:30.051Z,99.90
2023-05-21T00:24:57.310Z,99.90
2023-05-21T00:27:24.698Z,99.90
2023-05-21T00:29:52.396Z,99.90
2023-05-21T00:32:19.506Z,99.90
2023-05-21T00:34:47.525Z,99.90
2023-05-21T00:37:15.539Z,99.90
2023-05-21T00:39:43.360Z,99.90
2023-05-21T00:42:10.816Z,99.90
2023-05-21T00:44:38.840Z,99.90
2023-05-21T00:47:06.757Z,99.90
2023-05-21T00:49:35.144Z,99.90
2023-05-21T00:52:02.491Z,99.90
2023-05-21T00:54:30.996Z,99.90
2023-05-21T00:57:01.262Z,99.90
2023-05-21T00:59:29.072Z,99.90
2023-05-21T01:01:57.183Z,99.90
2023-05-21T01:04:27.698Z,99.90
2023-05-21T01:06:56.628Z,99.90
2023-05-21T01:09:36.022Z,99.90
2023-05-21T01:12:04.486Z,99.90
2023-05-21T01:14:33.021Z,99.90
2023-05-21T01:17:02.379Z,99.90
2023-05-21T01:19:30.200Z,99.90
2023-05-21T01:22:02.126Z,99.90
2023-05-21T01:24:29.332Z,99.90
2023-05-21T01:26:56.685Z,99.90
2023-05-21T01:29:24.487Z,99.90
2023-05-21T01:32:19.849Z,99.90
2023-05-21T01:35:13.343Z,99.90
2023-05-21T01:37:49.929Z,99.90
2023-05-21T01:40:26.067Z,99.90
2023-05-21T01:42:53.572Z,99.90
2023-05-21T01:45:22.706Z,99.90
2023-05-21T01:47:51.934Z,99.90
2023-05-21T01:50:19.593Z,99.90
2023-05-21T01:52:54.499Z,99.90
2023-05-21T01:55:25.525Z,99.90
2023-05-21T01:57:53.879Z,99.90
2023-05-21T02:00:22.673Z,99.90
2023-05-21T02:02:50.818Z,99.90
2023-05-21T02:05:18.605Z,99.90
2023-05-21T02:07:47.661Z,99.90
2023-05-21T02:10:15.042Z,99.90
2023-05-21T02:12:43.452Z,99.90
2023-05-21T02:15:11.202Z,99.90
2023-05-21T02:17:39.027Z,99.90
2023-05-21T02:20:14.012Z,99.90
2023-05-21T02:22:43.310Z,99.90
2023-05-21T02:25:14.330Z,99.90
2023-05-21T02:27:43.146Z,99.90
2023-05-21T02:30:11.901Z,99.90
2023-05-21T02:32:45.537Z,99.90
2023-05-21T02:35:15.247Z,99.90
2023-05-21T02:37:44.335Z,99.90
2023-05-21T02:40:12.121Z,99.90
2023-05-21T02:42:40.560Z,99.90
2023-05-21T02:45:14.036Z,99.90
2023-05-21T02:47:41.623Z,99.90
2023-05-21T02:50:09.839Z,99.90
2023-05-21T02:52:37.021Z,99.90
2023-05-21T02:55:04.840Z,99.90
2023-05-21T02:57:32.213Z,99.90
2023-05-21T03:00:04.032Z,99.90
2023-05-21T03:02:31.653Z,99.90
2023-05-21T03:05:00.845Z,99.90
2023-05-21T03:07:28.258Z,99.90
2023-05-21T03:09:56.053Z,99.90
2023-05-21T03:12:23.288Z,99.90
2023-05-21T03:14:51.558Z,99.90
2023-05-21T03:17:19.288Z,99.90
2023-05-21T03:19:47.342Z,99.90
2023-05-21T03:22:14.634Z,99.90
2023-05-21T03:24:42.497Z,99.90
2023-05-21T03:27:10.263Z,99.90
2023-05-21T03:29:40.158Z,99.90
2023-05-21T03:32:11.028Z,99.90
2023-05-21T03:34:41.383Z,99.90
2023-05-21T03:37:08.913Z,99.90
2023-05-21T03:39:39.228Z,99.90
2023-05-21T03:42:11.349Z,99.90
2023-05-21T03:44:45.276Z,99.90
2023-05-21T03:47:12.451Z,99.90
2023-05-21T03:49:40.258Z,99.90
2023-05-21T03:52:10.191Z,99.90
2023-05-21T03:54:37.680Z,99.90
2023-05-21T03:57:05.181Z,99.90
2023-05-21T03:59:33.021Z,99.90
2023-05-21T04:02:00.857Z,99.90
2023-05-21T04:04:29.912Z,99.90
2023-05-21T04:06:57.728Z,99.90
2023-05-21T04:09:25.278Z,99.90
2023-05-21T04:11:52.882Z,99.90
2023-05-21T04:14:20.661Z,99.90
2023-05-21T04:16:49.388Z,99.90
2023-05-21T04:19:16.834Z,99.90
2023-05-21T04:21:45.232Z,99.90
2023-05-21T04:24:14.973Z,99.90
2023-05-21T04:26:42.362Z,99.90
2023-05-21T04:29:10.216Z,99.90
2023-05-21T04:31:37.552Z,99.90
2023-05-21T04:34:05.428Z,99.90
2023-05-21T04:36:34.063Z,99.90
2023-05-21T04:39:01.820Z,99.90
2023-05-21T04:41:29.145Z,99.90
2023-05-21T04:43:56.376Z,99.90
2023-05-21T04:46:27.057Z,99.90
2023-05-21T04:48:58.403Z,99.90
2023-05-21T04:51:46.436Z,99.90
2023-05-21T04:54:16.535Z,99.90
2023-05-21T04:56:58.433Z,99.90
2023-05-21T04:59:29.929Z,99.90
2023-05-21T05:04:34.263Z,99.90
2023-05-21T05:07:01.942Z,99.90
2023-05-21T05:09:30.587Z,99.90
2023-05-21T05:11:58.060Z,99.90
2023-05-21T05:14:25.660Z,99.90
2023-05-21T05:16:52.917Z,99.90
2023-05-21T05:19:20.810Z,99.90
2023-05-21T05:21:48.064Z,99.90
2023-05-21T05:24:16.445Z,99.90
2023-05-21T05:26:47.049Z,99.90
2023-05-21T05:29:16.600Z,99.90
2023-05-21T05:31:43.672Z,99.90
2023-05-21T05:34:10.951Z,99.90
2023-05-21T05:36:38.558Z,99.90
2023-05-21T05:39:05.923Z,99.90
2023-05-21T05:41:33.576Z,99.90
2023-05-21T05:44:01.385Z,99.90
2023-05-21T05:46:29.602Z,99.90
2023-05-21T05:48:57.280Z,99.90
2023-05-21T05:51:24.778Z,99.90
2023-05-21T05:53:52.165Z,99.90
2023-05-21T05:56:19.736Z,99.90
2023-05-21T05:58:46.972Z,99.90
2023-05-21T06:01:14.371Z,99.90
2023-05-21T06:03:41.593Z,99.90
2023-05-21T06:06:09.173Z,99.90
2023-05-21T06:08:38.076Z,99.90
2023-05-21T06:11:05.884Z,99.90
2023-05-21T06:13:34.006Z,99.90
2023-05-21T06:16:01.762Z,99.90
2023-05-21T06:18:29.222Z,99.90
2023-05-21T06:20:56.347Z,99.90
2023-05-21T06:23:23.454Z,99.90
2023-05-21T06:25:50.853Z,99.90
2023-05-21T06:28:18.132Z,99.90
2023-05-21T06:30:45.743Z,99.90
2023-05-21T06:33:13.467Z,99.90
2023-05-21T06:35:41.388Z,99.90
2023-05-21T06:38:08.959Z,99.90
2023-05-21T06:40:36.531Z,99.90
2023-05-21T06:43:08.359Z,99.90
2023-05-21T06:45:36.022Z,99.90
2023-05-21T06:48:04.095Z,99.90
2023-05-21T06:50:31.817Z,99.90
2023-05-21T06:52:59.341Z,99.90
2023-05-21T06:55:27.148Z,99.90
2023-05-21T06:57:54.759Z,99.90
2023-05-21T07:00:22.632Z,99.90
2023-05-21T07:02:50.287Z,99.90
2023-05-21T07:05:18.313Z,99.90
2023-05-21T07:07:46.137Z,99.90
2023-05-21T07:10:14.300Z,99.90
2023-05-21T07:12:44.863Z,99.90
2023-05-21T07:15:12.457Z,99.90
2023-05-21T07:17:42.476Z,99.90
2023-05-21T07:20:13.263Z,99.90
2023-05-21T07:22:41.514Z,99.90
2023-05-21T07:25:09.579Z,99.90
2023-05-21T07:27:37.139Z,99.90
2023-05-21T07:30:06.441Z,99.90
2023-05-21T07:32:46.256Z,99.90
2023-05-21T07:35:16.735Z,99.90
2023-05-21T07:37:44.714Z,99.90
2023-05-21T07:40:13.058Z,99.90
2023-05-21T07:42:40.601Z,99.90
2023-05-21T07:45:08.379Z,99.90
2023-05-21T07:47:36.109Z,99.90
2023-05-21T07:50:04.105Z,99.90
2023-05-21T07:52:32.242Z,99.90
2023-05-21T07:54:59.560Z,99.90
2023-05-21T07:57:28.419Z,99.90
2023-05-21T07:59:56.833Z,99.90
2023-05-21T08:02:24.639Z,99.90
2023-05-21T08:04:52.809Z,99.90
2023-05-21T08:07:21.638Z,99.90
2023-05-21T08:09:48.992Z,99.90
2023-05-21T08:12:16.421Z,99.90
2023-05-21T08:14:43.786Z,99.90
2023-05-21T08:17:11.728Z,99.90
2023-05-21T08:19:39.457Z,99.90
2023-05-21T08:22:06.884Z,99.90
2023-05-21T08:24:34.246Z,99.90
2023-05-21T08:27:01.546Z,99.90
2023-05-21T08:29:28.861Z,99.90
2023-05-21T08:31:56.740Z,99.90
2023-05-21T08:34:24.826Z,99.90
2023-05-21T08:36:53.991Z,99.90
2023-05-21T08:39:21.870Z,99.90
2023-05-21T08:41:55.308Z,99.90
2023-05-21T08:44:25.745Z,99.90
2023-05-21T08:46:55.192Z,99.90
2023-05-21T08:49:27.441Z,99.90
2023-05-21T08:51:56.440Z,99.90
2023-05-21T08:54:24.134Z,99.90
2023-05-21T08:56:53.105Z,99.90
2023-05-21T08:59:22.106Z,99.90
2023-05-21T09:01:50.383Z,99.90
2023-05-21T09:04:21.217Z,99.90
2023-05-21T09:06:49.273Z,99.90
2023-05-21T09:09:32.305Z,99.90
2023-05-21T09:11:59.552Z,99.90
2023-05-21T09:14:28.654Z,99.90
2023-05-21T09:16:55.804Z,99.90
2023-05-21T09:19:23.289Z,99.90
2023-05-21T09:21:53.996Z,99.90
2023-05-21T09:24:24.703Z,99.90
2023-05-21T09:26:52.730Z,99.90
2023-05-21T09:29:19.937Z,99.90
2023-05-21T09:31:47.835Z,99.90
2023-05-21T09:34:15.579Z,99.90
2023-05-21T09:36:44.207Z,99.90
2023-05-21T09:39:16.604Z,99.90
2023-05-21T09:41:44.078Z,99.90
2023-05-21T09:44:11.513Z,99.90
2023-05-21T09:46:41.000Z,99.90
2023-05-21T09:49:26.524Z,99.90
2023-05-21T09:52:00.243Z,99.90
2023-05-21T09:54:33.627Z,99.90
2023-05-21T09:57:04.814Z,99.90
2023-05-21T09:59:41.649Z,99.90
2023-05-21T10:02:19.008Z,99.90
2023-05-21T10:04:49.848Z,99.90
2023-05-21T10:07:26.121Z,99.90
2023-05-21T10:09:58.453Z,99.90
2023-05-21T10:12:27.891Z,99.90
2023-05-21T10:15:03.155Z,99.90
2023-05-21T10:17:31.203Z,99.90
2023-05-21T10:20:01.064Z,99.90
2023-05-21T10:22:29.294Z,99.90
2023-05-21T10:24:59.018Z,99.90
2023-05-21T10:27:30.558Z,99.90
2023-05-21T10:30:00.375Z,99.90
2023-05-21T10:32:28.425Z,99.90
2023-05-21T10:34:55.978Z,99.90
2023-05-21T10:37:27.861Z,99.90
2023-05-21T10:39:56.538Z,99.10
2023-05-21T10:42:30.149Z,98.10
2023-05-21T10:45:21.969Z,97.60
2023-05-21T10:48:40.113Z,96.50
2023-05-21T10:51:16.715Z,96.30
2023-05-21T10:54:02.576Z,96.50
2023-05-21T10:56:38.959Z,95.70
2023-05-21T10:59:34.042Z,96.00
2023-05-21T11:02:02.381Z,95.50
2023-05-21T11:04:30.103Z,95.30
2023-05-21T11:06:59.156Z,94.90
2023-05-21T11:09:27.654Z,95.10
2023-05-21T11:11:59.419Z,95.40
2023-05-21T11:14:39.643Z,96.10
2023-05-21T11:17:12.043Z,96.40
2023-05-21T11:19:43.751Z,96.20
2023-05-21T11:22:24.336Z,95.80
2023-05-21T11:24:53.392Z,93.60
2023-05-21T11:27:44.017Z,93.60
2023-05-21T11:30:17.230Z,93.40
2023-05-21T11:33:14.359Z,92.90
2023-05-21T11:35:50.720Z,91.90
2023-05-21T11:38:18.669Z,90.90
2023-05-21T11:40:55.656Z,90.20
2023-05-21T11:43:23.184Z,90.00
2023-05-21T11:45:53.340Z,89.40
2023-05-21T11:48:27.258Z,85.80
2023-05-21T11:50:55.266Z,85.10
2023-05-21T11:53:22.746Z,81.90
2023-05-21T11:55:50.923Z,81.30
2023-05-21T11:58:19.857Z,77.70
2023-05-21T12:00:51.357Z,77.90
2023-05-21T12:03:20.054Z,75.90
2023-05-21T12:05:48.245Z,75.10
2023-05-21T12:08:27.456Z,73.90
2023-05-21T12:11:02.072Z,70.90
2023-05-21T12:13:29.663Z,68.80
2023-05-21T12:15:57.180Z,66.50
2023-05-21T12:18:25.548Z,67.00
2023-05-21T12:20:53.114Z,68.40
2023-05-21T12:23:31.781Z,67.90
2023-05-21T12:25:59.708Z,68.80
2023-05-21T12:28:27.571Z,69.80
2023-05-21T12:30:57.694Z,70.40
2023-05-21T12:33:26.389Z,70.40
2023-05-21T12:35:55.418Z,71.60
2023-05-21T12:38:22.782Z,72.90
2023-05-21T12:40:54.062Z,73.40
2023-05-21T12:43:21.239Z,74.20
2023-05-21T12:45:48.835Z,73.80
2023-05-21T12:48:16.844Z,74.40
2023-05-21T12:50:44.615Z,75.20
2023-05-21T12:53:12.531Z,76.60
2023-05-21T12:55:40.859Z,75.30
2023-05-21T12:58:09.259Z,76.20
2023-05-21T13:00:37.792Z,77.30
2023-05-21T13:03:06.918Z,75.90
2023-05-21T13:05:35.033Z,75.80
2023-05-21T13:08:02.466Z,74.70
2023-05-21T13:10:30.127Z,73.20
2023-05-21T13:12:57.273Z,73.60
2023-05-21T13:15:24.992Z,71.80
2023-05-21T13:17:54.346Z,68.40
2023-05-21T13:20:26.709Z,67.80
2023-05-21T13:22:54.357Z,67.40
2023-05-21T13:25:25.116Z,66.90
2023-05-21T13:27:54.114Z,66.40
2023-05-21T13:30:24.418Z,66.00
2023-05-21T13:32:55.137Z,63.40
2023-05-21T13:35:22.833Z,61.80
2023-05-21T13:37:50.162Z,59.90
2023-05-21T13:40:18.275Z,59.70
2023-05-21T13:42:48.205Z,59.20
2023-05-21T13:45:17.733Z,57.40
2023-05-21T13:47:46.032Z,58.40
2023-05-21T13:50:14.093Z,58.20
2023-05-21T13:52:41.890Z,58.70
2023-05-21T13:55:10.812Z,58.20
2023-05-21T13:57:40.824Z,58.10
2023-05-21T14:00:14.502Z,57.60
2023-05-21T14:02:43.635Z,57.10
2023-05-21T14:05:12.274Z,57.20
2023-05-21T14:07:40.281Z,56.80
2023-05-21T14:10:08.512Z,56.10
2023-05-21T14:12:36.129Z,56.40
2023-05-21T14:15:03.353Z,56.50
2023-05-21T14:17:33.811Z,56.60
2023-05-21T14:20:01.079Z,54.40
2023-05-21T14:22:28.413Z,54.80
2023-05-21T14:24:56.450Z,56.00
2023-05-21T14:27:23.503Z,56.90
2023-05-21T14:29:51.240Z,55.10
2023-05-21T14:32:19.561Z,54.80
2023-05-21T14:34:46.897Z,54.70
2023-05-21T14:37:14.334Z,53.90
2023-05-21T14:39:41.352Z,53.50
2023-05-21T14:42:08.558Z,53.40
2023-05-21T14:44:35.855Z,53.30
2023-05-21T14:47:03.523Z,52.50
2023-05-21T14:49:33.927Z,52.40
2023-05-21T14:52:01.269Z,52.40
2023-05-21T14:54:28.901Z,52.10
2023-05-21T14:56:56.782Z,51.80
2023-05-21T14:59:23.908Z,52.00
2023-05-21T15:01:51.210Z,52.70
2023-05-21T15:04:18.535Z,53.30
2023-05-21T15:06:45.663Z,52.80
2023-05-21T15:09:13.027Z,51.30
2023-05-21T15:11:40.728Z,49.80
2023-05-21T15:14:07.809Z,49.10
2023-05-21T15:16:34.976Z,48.90
2023-05-21T15:19:02.595Z,48.40
2023-05-21T15:21:29.777Z,48.70
2023-05-21T15:23:57.583Z,49.70
2023-05-21T15:26:26.540Z,50.50
2023-05-21T15:28:54.144Z,50.90
2023-05-21T15:31:21.743Z,51.30
2023-05-21T15:33:49.565Z,51.70
2023-05-21T15:36:16.906Z,51.70
2023-05-21T15:38:44.355Z,51.90
2023-05-21T15:41:11.825Z,52.00
2023-05-21T15:43:39.259Z,51.30
2023-05-21T15:46:06.706Z,51.50
2023-05-21T15:48:34.240Z,51.60
2023-05-21T15:51:01.866Z,51.10
2023-05-21T15:53:28.956Z,50.50
2023-05-21T15:55:56.986Z,49.50
2023-05-21T15:58:24.273Z,49.30
2023-05-21T16:00:51.718Z,49.80
2023-05-21T16:03:20.034Z,49.80
2023-05-21T16:05:47.925Z,49.20
2023-05-21T16:08:17.971Z,49.10
2023-05-21T16:10:46.200Z,49.30
2023-05-21T16:13:13.567Z,49.20
2023-05-21T16:15:40.934Z,48.60
2023-05-21T16:18:09.979Z,48.60
2023-05-21T16:20:37.664Z,48.70
2023-05-21T16:23:06.594Z,48.60
2023-05-21T16:25:36.055Z,48.90
2023-05-21T16:28:03.999Z,49.10
2023-05-21T16:30:31.673Z,49.00
2023-05-21T16:32:59.026Z,49.30
2023-05-21T16:35:26.812Z,49.60
2023-05-21T16:37:54.083Z,50.00
2023-05-21T16:40:21.440Z,49.90
2023-05-21T16:42:49.335Z,50.20
2023-05-21T16:45:21.483Z,49.50
2023-05-21T16:47:52.855Z,49.50
2023-05-21T16:50:20.109Z,49.50
2023-05-21T16:52:47.717Z,49.20
2023-05-21T16:55:15.499Z,49.00
2023-05-21T16:57:42.972Z,48.90
2023-05-21T17:00:10.767Z,48.80
2023-05-21T17:02:38.892Z,48.90
2023-05-21T17:05:07.019Z,48.80
2023-05-21T17:07:34.365Z,49.10
2023-05-21T17:10:02.340Z,49.10
2023-05-21T17:12:29.719Z,49.20
2023-05-21T17:14:57.070Z,49.50
2023-05-21T17:17:24.721Z,49.70
2023-05-21T17:19:52.411Z,50.10
2023-05-21T17:22:20.169Z,50.60
2023-05-21T17:24:48.074Z,51.10
2023-05-21T17:27:16.430Z,51.70
2023-05-21T17:29:44.179Z,52.50
2023-05-21T17:34:53.979Z,53.50
2023-05-21T17:37:21.351Z,53.80
2023-05-21T17:39:48.490Z,53.90
2023-05-21T17:42:15.752Z,54.10
2023-05-21T17:44:43.105Z,53.80
2023-05-21T17:47:10.370Z,53.90
2023-05-21T17:49:37.487Z,53.90
2023-05-21T17:52:05.164Z,54.10
2023-05-21T17:54:32.384Z,54.50
2023-05-21T17:56:59.433Z,54.60
2023-05-21T17:59:26.722Z,54.90
2023-05-21T18:01:53.795Z,55.10
2023-05-21T18:04:21.264Z,55.60
2023-05-21T18:06:48.383Z,56.20
2023-05-21T18:09:15.837Z,57.10
2023-05-21T18:11:44.694Z,58.30
2023-05-21T18:14:11.953Z,58.40
2023-05-21T18:16:39.520Z,59.00
2023-05-21T18:19:07.398Z,59.60
2023-05-21T18:21:35.516Z,60.90
2023-05-21T18:24:03.534Z,61.90
2023-05-21T18:26:31.036Z,64.10
2023-05-21T18:28:58.823Z,64.60
2023-05-21T18:31:29.397Z,65.60
2023-05-21T18:33:56.736Z,66.40
2023-05-21T18:36:24.096Z,66.70
2023-05-21T18:38:52.681Z,66.20
2023-05-21T18:41:22.542Z,67.30
2023-05-21T18:43:49.650Z,67.50
2023-05-21T18:46:16.785Z,69.10
2023-05-21T18:48:44.103Z,71.30
2023-05-21T18:51:11.570Z,73.40
2023-05-21T18:53:39.386Z,76.30
2023-05-21T18:56:10.679Z,79.30
2023-05-21T18:58:38.641Z,82.60
2023-05-21T19:01:07.089Z,86.10
2023-05-21T19:03:34.578Z,90.00
2023-05-21T19:06:01.733Z,91.70
2023-05-21T19:08:28.896Z,93.50
2023-05-21T19:10:56.521Z,95.50
2023-05-21T19:13:24.024Z,97.70
2023-05-21T19:15:51.516Z,99.80
2023-05-21T19:18:18.922Z,99.90
2023-05-21T19:20:46.155Z,99.90
2023-05-21T19:23:13.254Z,99.90
2023-05-21T19:25:40.798Z,99.90
2023-05-21T19:28:08.161Z,99.90
2023-05-21T19:30:36.730Z,99.90
2023-05-21T19:33:04.217Z,99.90
2023-05-21T19:35:31.956Z,99.90
2023-05-21T19:38:00.707Z,99.90
2023-05-21T19:40:30.996Z,99.90
2023-05-21T19:42:58.721Z,99.90
2023-05-21T19:45:26.318Z,99.90
2023-05-21T19:47:53.829Z,99.90
2023-05-21T19:50:21.286Z,99.90
2023-05-21T19:52:48.889Z,99.90
2023-05-21T19:55:20.533Z,99.90
2023-05-21T19:57:47.883Z,99.90
2023-05-21T20:00:15.408Z,99.90
2023-05-21T20:02:43.516Z,99.90
2023-05-21T20:05:11.307Z,99.90
2023-05-21T20:07:38.813Z,99.90
2023-05-21T20:10:07.608Z,99.90
2023-05-21T20:12:35.152Z,99.90
2023-05-21T20:17:44.899Z,99.90
2023-05-21T20:20:12.779Z,99.90
2023-05-21T20:22:40.066Z,99.90
2023-05-21T20:25:08.946Z,99.90
2023-05-21T20:27:38.761Z,99.90
2023-05-21T20:30:07.768Z,99.90
2023-05-21T20:32:38.098Z,99.90
2023-05-21T20:35:09.191Z,99.90
2023-05-21T20:37:37.152Z,99.90
2023-05-21T20:40:06.692Z,99.90
2023-05-21T20:42:36.719Z,99.90
2023-05-21T20:45:04.755Z,99.90
2023-05-21T20:47:32.224Z,99.90
2023-05-21T20:50:00.316Z,99.90
2023-05-21T20:52:27.867Z,99.90
2023-05-21T20:54:55.216Z,99.90
2023-05-21T20:57:26.283Z,99.90
2023-05-21T20:59:54.113Z,99.90
2023-05-21T21:02:23.082Z,99.90
2023-05-21T21:04:51.176Z,99.90
2023-05-21T21:07:18.952Z,99.90
2023-05-21T21:09:48.646Z,99.90
2023-05-21T21:12:25.864Z,99.90
2023-05-21T21:14:54.445Z,99.90
2023-05-21T21:17:21.589Z,99.90
2023-05-21T21:19:49.170Z,99.90
2023-05-21T21:22:16.865Z,99.90
2023-05-21T21:24:44.700Z,99.90
2023-05-21T21:27:12.217Z,99.90
2023-05-21T21:29:40.175Z,99.90
2023-05-21T21:32:07.832Z,99.90
2023-05-21T21:34:35.391Z,99.90
2023-05-21T21:37:02.970Z,99.90
2023-05-21T21:39:30.629Z,99.90
2023-05-21T21:41:58.110Z,99.90
2023-05-21T21:44:26.236Z,99.90
2023-05-21T21:46:53.694Z,99.90
2023-05-21T21:49:21.161Z,99.90
2023-05-21T21:51:48.658Z,99.90
2023-05-21T21:54:15.881Z,99.90
2023-05-21T21:56:43.515Z,99.90
2023-05-21T21:59:10.804Z,99.90
2023-05-21T22:01:38.060Z,99.90
2023-05-21T22:04:08.099Z,99.90
2023-05-21T22:06:35.544Z,99.90
2023-05-21T22:09:03.345Z,99.90
2023-05-21T22:11:31.217Z,99.90
2023-05-21T22:14:00.742Z,99.90
2023-05-21T22:16:28.507Z,99.90
2023-05-21T22:18:58.192Z,99.90
2023-05-21T22:21:29.435Z,99.90
2023-05-21T22:23:56.934Z,99.90
2023-05-21T22:26:24.768Z,99.90
2023-05-21T22:28:53.050Z,99.90
2023-05-21T22:31:36.257Z,99.90
2023-05-21T22:34:03.949Z,99.90
2023-05-21T22:36:31.518Z,99.90
2023-05-21T22:38:59.022Z,99.90
2023-05-21T22:41:26.933Z,99.90
2023-05-21T22:43:54.292Z,99.90
2023-05-21T22:46:24.632Z,99.90
2023-05-21T22:48:52.059Z,99.90
2023-05-21T22:51:19.108Z,99.90
2023-05-21T22:53:46.554Z,99.90
2023-05-21T22:56:13.956Z,99.90
2023-05-21T22:58:41.288Z,99.90
2023-05-21T23:01:08.579Z,99.90
2023-05-21T23:03:35.931Z,99.90
2023-05-21T23:06:03.177Z,99.90
2023-05-21T23:08:30.389Z,99.90
2023-05-21T23:10:57.705Z,99.90
2023-05-21T23:13:24.969Z,99.90
2023-05-21T23:15:52.129Z,99.90
2023-05-21T23:18:19.410Z,99.90
2023-05-21T23:20:46.846Z,99.90
2023-05-21T23:23:14.321Z,99.90
2023-05-21T23:25:41.469Z,99.90
2023-05-21T23:28:08.773Z,99.90
2023-05-21T23:30:36.269Z,99.90
2023-05-21T23:33:03.884Z,99.90
2023-05-21T23:35:31.243Z,99.90
2023-05-21T23:38:08.882Z,99.90
2023-05-21T23:40:36.553Z,99.90
2023-05-21T23:43:04.882Z,99.90
2023-05-21T23:45:32.311Z,99.90
2023-05-21T23:47:59.385Z,99.90
2023-05-21T23:50:26.756Z,99.90
2023-05-21T23:52:53.830Z,99.90
2023-05-21T23:55:21.073Z,99.90
2023-05-21T23:57:48.168Z,99.90
